ROMMA est une association bénévole à but non lucratif. Votre soutien est indispensable : ADHERER à ROMMA ou FAIRE un DON

Crempigny - (74, Haute-Savoie)

Albanais-Montagne des Princes (500 m)   Longitude: 05° 54' 5" E   Latitude: 45° 57' 0" N Station partenaire n°10
 

Détail journalier du     <<     >>

Température Precipitation Humidité Pression Vent Dir Rafale Dir. rafale Ensol. 20 cm au dessus du sol
Heure (°C) (mm) (%) (hPa) (km/h) (km/h) (min) (°C)
01:00 4.409710102NO6NNO03.9
02:00 4.209710111NNE6NNE03.9
03:00 4.1097101103NNE03.9
04:00 4.1098101003NNE03.9
05:00 3.9098101003NNE03.3
06:00 3.509810102NNE5NNE02.8
07:00 3.209810104NNO8NO02.2
08:00 3.709810104NNO10NNO03.9
09:00 4.209810103NO8NO105.0
10:00 4.709910091NO8N06.1
11:00 5.309710094NE13NNE06.7
12:00 5.909510086NNE21N06.7
13:00 7.0093100710NNE24NNE308.9
14:00 6.8091100510NNE29NNE107.2
15:00 6.409110049NNE26NNE56.7
16:00 6.009110038NNE23N55.6
17:00 5.109210034NNE16NNE04.4
18:00 5.309210027N19NNE05.0
19:00 4.909310016N21NNE04.4
20:00 4.509410014N21N03.3
21:00 4.409510004NO15N04.4
22:00 4.609410005NO13NO04.4
23:00 4.50949994NO16NO03.9
minuit 4.40949997NO15NO04.4

Graphique du 22-11-2019

 

Serveur OMMA